createdAt,value
2019-01-02T00:00:12.577Z,62.67
2019-01-02T00:02:48.462Z,62.69
2019-01-02T00:05:16.899Z,62.53
2019-01-02T00:07:45.287Z,62.62
2019-01-02T00:10:13.557Z,63.05
2019-01-02T00:12:41.994Z,63.55
2019-01-02T00:15:11.097Z,62.47
2019-01-02T00:17:40.660Z,62.75
2019-01-02T00:20:17.267Z,63.18
2019-01-02T00:22:46.251Z,63.56
2019-01-02T00:25:16.534Z,63.59
2019-01-02T00:27:45.255Z,64.46
2019-01-02T00:30:13.704Z,63.70
2019-01-02T00:32:42.075Z,63.79
2019-01-02T00:35:10.420Z,63.87
2019-01-02T00:37:39.871Z,63.57
2019-01-02T00:40:12.321Z,63.40
2019-01-02T00:42:41.935Z,64.05
2019-01-02T00:45:10.350Z,64.38
2019-01-02T00:47:39.868Z,63.83
2019-01-02T00:50:10.751Z,64.29
2019-01-02T00:52:39.592Z,63.95
2019-01-02T00:55:08.475Z,64.64
2019-01-02T00:57:37.170Z,64.51
2019-01-02T01:00:19.917Z,65.44
2019-01-02T01:02:48.290Z,66.39
2019-01-02T01:05:16.562Z,67.76
2019-01-02T01:07:46.135Z,67.69
2019-01-02T01:10:16.942Z,68.01
2019-01-02T01:12:46.246Z,68.26
2019-01-02T01:15:14.580Z,69.06
2019-01-02T01:17:43.333Z,69.25
2019-01-02T01:20:15.485Z,69.62
2019-01-02T01:22:43.845Z,70.08
2019-01-02T01:25:12.181Z,70.31
2019-01-02T01:27:40.593Z,70.90
2019-01-02T01:30:11.505Z,70.62
2019-01-02T01:32:39.783Z,70.85
2019-01-02T01:35:11.009Z,70.07
2019-01-02T01:37:43.661Z,70.20
2019-01-02T01:40:12.673Z,70.06
2019-01-02T01:42:41.137Z,70.00
2019-01-02T01:45:10.826Z,69.88
2019-01-02T01:47:39.230Z,69.89
2019-01-02T01:50:11.156Z,69.86
2019-01-02T01:52:39.408Z,69.73
2019-01-02T01:55:08.635Z,69.96
2019-01-02T01:57:37.282Z,70.45
2019-01-02T02:00:14.338Z,70.55
2019-01-02T02:02:42.658Z,70.06
2019-01-02T02:05:10.985Z,70.28
2019-01-02T02:07:39.277Z,70.08
2019-01-02T02:10:11.162Z,70.11
2019-01-02T02:12:39.517Z,69.98
2019-01-02T02:15:11.317Z,69.73
2019-01-02T02:17:41.225Z,69.94
2019-01-02T02:20:12.280Z,70.13
2019-01-02T02:22:40.685Z,69.95
2019-01-02T02:25:12.267Z,70.38
2019-01-02T02:27:40.688Z,69.77
2019-01-02T02:30:14.580Z,69.46
2019-01-02T02:32:44.874Z,68.93
2019-01-02T02:35:13.525Z,68.76
2019-01-02T02:37:41.942Z,68.70
2019-01-02T02:40:13.419Z,68.53
2019-01-02T02:42:41.746Z,68.49
2019-01-02T02:45:13.402Z,68.11
2019-01-02T02:47:42.805Z,67.95
2019-01-02T02:50:14.496Z,67.73
2019-01-02T02:52:42.771Z,67.81
2019-01-02T02:55:14.459Z,67.86
2019-01-02T02:57:42.854Z,67.64
2019-01-02T03:00:16.577Z,67.80
2019-01-02T03:02:45.721Z,67.30
2019-01-02T03:05:15.761Z,67.12
2019-01-02T03:07:44.967Z,67.25
2019-01-02T03:10:16.683Z,67.33
2019-01-02T03:12:45.997Z,67.11
2019-01-02T03:15:15.442Z,66.83
2019-01-02T03:17:44.895Z,67.02
2019-01-02T03:20:15.728Z,67.25
2019-01-02T03:22:44.832Z,67.28
2019-01-02T03:25:14.508Z,66.78
2019-01-02T03:27:44.057Z,67.03
2019-01-02T03:30:15.949Z,67.27
2019-01-02T03:32:44.658Z,66.67
2019-01-02T03:35:13.615Z,66.58
2019-01-02T03:37:41.955Z,67.46
2019-01-02T03:40:11.918Z,67.48
2019-01-02T03:42:40.250Z,67.54
2019-01-02T03:45:12.103Z,68.18
2019-01-02T03:47:40.369Z,68.05
2019-01-02T03:50:13.945Z,67.94
2019-01-02T03:52:42.276Z,67.95
2019-01-02T03:55:10.624Z,67.90
2019-01-02T03:57:38.975Z,68.27
2019-01-02T04:00:13.287Z,68.72
2019-01-02T04:02:41.724Z,68.94
2019-01-02T04:05:12.977Z,69.51
2019-01-02T04:07:43.447Z,69.46
2019-01-02T04:10:13.884Z,69.93
2019-01-02T04:12:42.182Z,70.01
2019-01-02T04:15:10.792Z,69.95
2019-01-02T04:17:39.126Z,70.12
2019-01-02T04:20:08.546Z,69.58
2019-01-02T04:22:36.878Z,70.02
2019-01-02T04:25:07.954Z,70.00
2019-01-02T04:27:36.396Z,70.17
2019-01-02T04:30:10.670Z,70.18
2019-01-02T04:32:39.051Z,70.03
2019-01-02T04:35:08.749Z,70.43
2019-01-02T04:37:37.039Z,70.16
2019-01-02T04:40:08.598Z,70.49
2019-01-02T04:42:37.074Z,70.28
2019-01-02T04:45:08.060Z,70.85
2019-01-02T04:47:36.327Z,71.30
2019-01-02T04:50:07.906Z,71.47
2019-01-02T04:52:36.221Z,71.10
2019-01-02T04:55:05.720Z,71.01
2019-01-02T04:57:33.997Z,71.37
2019-01-02T05:00:02.409Z,71.65
2019-01-02T05:02:30.832Z,71.81
2019-01-02T05:04:59.342Z,71.92
2019-01-02T05:07:27.646Z,72.30
2019-01-02T05:09:55.908Z,72.55
2019-01-02T05:12:24.235Z,72.54
2019-01-02T05:14:52.538Z,72.75
2019-01-02T05:17:20.894Z,73.13
2019-01-02T05:19:49.214Z,73.50
2019-01-02T05:22:17.642Z,73.80
2019-01-02T05:24:45.909Z,74.11
2019-01-02T05:27:14.191Z,74.37
2019-01-02T05:29:42.593Z,74.75
2019-01-02T05:32:10.853Z,75.05
2019-01-02T05:34:39.141Z,74.90
2019-01-02T05:37:07.536Z,74.90
2019-01-02T05:39:35.875Z,75.03
2019-01-02T05:42:04.252Z,75.18
2019-01-02T05:44:32.642Z,75.14
2019-01-02T05:47:01.033Z,74.45
2019-01-02T05:49:29.333Z,74.08
2019-01-02T05:51:57.701Z,73.97
2019-01-02T05:54:25.988Z,73.60
2019-01-02T05:56:54.560Z,72.68
2019-01-02T05:59:22.892Z,71.55
2019-01-02T06:01:51.272Z,71.59
2019-01-02T06:04:19.623Z,72.25
2019-01-02T06:06:47.896Z,71.98
2019-01-02T06:09:16.196Z,72.26
2019-01-02T06:11:44.500Z,72.34
2019-01-02T06:14:12.834Z,72.62
2019-01-02T06:16:41.227Z,72.89
2019-01-02T06:19:09.565Z,72.82
2019-01-02T06:21:38.089Z,72.84
2019-01-02T06:24:06.370Z,71.94
2019-01-02T06:26:34.735Z,71.64
2019-01-02T06:29:03.053Z,71.62
2019-01-02T06:31:31.433Z,71.52
2019-01-02T06:33:59.853Z,71.05
2019-01-02T06:36:28.217Z,70.00
2019-01-02T06:38:56.681Z,70.54
2019-01-02T06:41:25.017Z,69.97
2019-01-02T06:43:54.296Z,69.74
2019-01-02T06:46:22.784Z,69.82
2019-01-02T06:48:51.221Z,70.16
2019-01-02T06:51:19.614Z,69.56
2019-01-02T06:53:49.442Z,69.39
2019-01-02T06:56:18.287Z,69.75
2019-01-02T06:58:46.712Z,69.18
2019-01-02T07:01:14.983Z,68.79
2019-01-02T07:03:43.271Z,69.29
2019-01-02T07:06:11.804Z,69.29
2019-01-02T07:08:40.142Z,67.44
2019-01-02T07:11:08.435Z,67.18
2019-01-02T07:13:36.754Z,67.89
2019-01-02T07:16:05.060Z,66.73
2019-01-02T07:18:33.531Z,67.09
2019-01-02T07:21:01.952Z,67.76
2019-01-02T07:23:32.518Z,67.90
2019-01-02T07:26:00.903Z,68.17
2019-01-02T07:28:29.351Z,67.98
2019-01-02T07:30:57.787Z,68.52
2019-01-02T07:33:29.558Z,68.83
2019-01-02T07:36:09.889Z,69.28
2019-01-02T07:38:50.232Z,69.66
2019-01-02T07:41:46.723Z,70.39
2019-01-02T07:44:30.465Z,70.47
2019-01-02T07:47:13.290Z,70.69
2019-01-02T07:50:01.067Z,70.52
2019-01-02T07:52:38.542Z,70.17
2019-01-02T07:55:29.581Z,69.92
2019-01-02T07:58:20.954Z,69.81
2019-01-02T08:00:58.423Z,69.44
2019-01-02T08:03:29.981Z,69.87
2019-01-02T08:06:18.120Z,69.81
2019-01-02T08:09:09.223Z,69.83
2019-01-02T08:12:04.157Z,69.85
2019-01-02T08:14:55.543Z,69.84
2019-01-02T08:17:45.027Z,70.34
2019-01-02T08:20:34.598Z,70.25
2019-01-02T08:23:11.855Z,70.20
2019-01-02T08:25:49.330Z,69.91
2019-01-02T08:28:29.593Z,69.38
2019-01-02T08:31:10.132Z,68.40
2019-01-02T08:33:56.478Z,68.62
2019-01-02T08:36:45.934Z,68.01
2019-01-02T08:39:35.540Z,68.19
2019-01-02T08:42:10.127Z,67.64
2019-01-02T08:44:50.334Z,67.39
2019-01-02T08:47:37.067Z,67.45
2019-01-02T08:50:20.386Z,66.95
2019-01-02T08:52:57.969Z,66.79
2019-01-02T08:55:32.156Z,65.84
2019-01-02T08:58:21.565Z,65.00
2019-01-02T09:01:09.284Z,64.00
2019-01-02T09:03:55.797Z,61.29
2019-01-02T09:06:51.316Z,60.02
2019-01-02T09:09:25.710Z,58.19
2019-01-02T09:12:15.550Z,56.97
2019-01-02T09:15:02.170Z,56.21
2019-01-02T09:17:45.596Z,55.17
2019-01-02T09:20:35.401Z,55.90
2019-01-02T09:23:29.778Z,55.17
2019-01-02T09:26:28.791Z,55.36
2019-01-02T09:29:17.507Z,56.78
2019-01-02T09:32:24.413Z,57.80
2019-01-02T09:35:05.656Z,58.45
2019-01-02T09:41:00.551Z,57.47
2019-01-02T09:43:46.583Z,55.97
2019-01-02T09:46:37.918Z,54.65
2019-01-02T09:49:36.799Z,52.54
2019-01-02T09:52:51.276Z,52.44
2019-01-02T09:55:53.165Z,48.78
2019-01-02T09:58:55.624Z,49.20
2019-01-02T10:01:51.394Z,50.01
2019-01-02T10:09:30.524Z,52.65
2019-01-02T10:12:23.853Z,54.91
2019-01-02T10:15:10.611Z,56.77
2019-01-02T10:18:02.450Z,58.44
2019-01-02T10:21:02.233Z,58.28
2019-01-02T10:24:07.568Z,58.67
2019-01-02T10:26:56.329Z,58.99
2019-01-02T10:29:57.953Z,59.45
2019-01-02T10:32:57.409Z,59.49
2019-01-02T10:35:57.309Z,58.31
2019-01-02T10:38:54.346Z,59.25
2019-01-02T10:41:46.573Z,57.51
2019-01-02T10:45:01.657Z,58.47
2019-01-02T10:47:50.254Z,58.48
2019-01-02T10:50:52.738Z,57.92
2019-01-02T10:53:43.883Z,58.84
2019-01-02T10:56:37.085Z,59.00
2019-01-02T10:59:23.846Z,58.92
2019-01-02T11:02:25.005Z,58.91
2019-01-02T11:05:15.977Z,58.73
2019-01-02T11:08:15.297Z,58.48
2019-01-02T11:11:12.616Z,58.62
2019-01-02T11:14:15.856Z,59.17
2019-01-02T11:17:14.082Z,58.65
2019-01-02T11:20:18.305Z,60.55
2019-01-02T11:23:15.232Z,61.21
2019-01-02T11:25:59.990Z,61.21
2019-01-02T11:28:46.731Z,60.58
2019-01-02T11:31:44.210Z,60.57
2019-01-02T11:34:52.914Z,60.55
2019-01-02T11:37:51.945Z,61.49
2019-01-02T11:41:00.362Z,59.71
2019-01-02T11:44:00.523Z,59.31
2019-01-02T11:46:44.302Z,59.13
2019-01-02T11:49:29.834Z,54.56
2019-01-02T11:52:12.089Z,55.47
2019-01-02T11:55:01.166Z,57.74
2019-01-02T11:57:44.614Z,57.67
2019-01-02T12:00:29.999Z,53.91
2019-01-02T12:02:59.077Z,55.08
2019-01-02T12:05:27.471Z,54.90
2019-01-02T12:07:55.876Z,54.70
2019-01-02T12:10:24.268Z,54.17
2019-01-02T12:12:52.723Z,54.04
2019-01-02T12:15:21.336Z,55.75
2019-01-02T12:17:49.719Z,55.64
2019-01-02T12:20:18.220Z,51.70
2019-01-02T12:22:47.590Z,52.78
2019-01-02T12:25:16.024Z,52.52
2019-01-02T12:27:44.367Z,52.94
2019-01-02T12:30:14.671Z,53.21
2019-01-02T12:32:47.728Z,53.80
2019-01-02T12:35:20.987Z,52.52
2019-01-02T12:37:51.089Z,52.67
2019-01-02T12:40:39.283Z,51.42
2019-01-02T12:43:10.190Z,49.76
2019-01-02T12:45:38.828Z,51.67
2019-01-02T12:48:07.423Z,52.53
2019-01-02T12:50:35.773Z,52.17
2019-01-02T12:53:04.898Z,50.26
2019-01-02T12:55:33.224Z,51.60
2019-01-02T12:58:01.701Z,52.30
2019-01-02T13:00:33.886Z,51.45
2019-01-02T13:03:29.302Z,50.35
2019-01-02T13:06:10.017Z,51.22
2019-01-02T13:09:03.488Z,50.86
2019-01-02T13:11:36.365Z,50.92
2019-01-02T13:14:13.689Z,51.72
2019-01-02T13:16:48.843Z,50.82
2019-01-02T13:19:23.295Z,51.44
2019-01-02T13:22:20.696Z,51.48
2019-01-02T13:25:01.353Z,52.41
2019-01-02T13:27:38.651Z,50.97
2019-01-02T13:30:43.615Z,52.08
2019-01-02T13:33:35.337Z,50.44
2019-01-02T13:36:13.867Z,50.65
2019-01-02T13:38:52.343Z,50.23
2019-01-02T13:41:41.522Z,50.21
2019-01-02T13:44:16.062Z,49.38
2019-01-02T13:46:56.437Z,50.33
2019-01-02T13:49:33.570Z,49.77
2019-01-02T13:52:01.924Z,48.72
2019-01-02T13:54:30.438Z,49.19
2019-01-02T13:56:58.858Z,49.90
2019-01-02T13:59:27.425Z,50.03
2019-01-02T14:01:56.570Z,51.03
2019-01-02T14:04:25.151Z,51.96
2019-01-02T14:06:53.578Z,52.94
2019-01-02T14:09:27.314Z,53.40
2019-01-02T14:11:55.737Z,53.75
2019-01-02T14:14:24.618Z,53.90
2019-01-02T14:16:52.916Z,54.90
2019-01-02T14:19:21.296Z,54.06
2019-01-02T14:21:49.818Z,55.08
2019-01-02T14:24:18.147Z,56.38
2019-01-02T14:26:46.444Z,58.46
2019-01-02T14:29:14.748Z,56.92
2019-01-02T14:31:43.061Z,57.72
2019-01-02T14:34:11.446Z,56.78
2019-01-02T14:36:39.793Z,58.48
2019-01-02T14:39:08.198Z,56.84
2019-01-02T14:41:36.922Z,55.99
2019-01-02T14:44:05.287Z,55.79
2019-01-02T14:46:33.783Z,55.55
2019-01-02T14:49:02.081Z,55.53
2019-01-02T14:51:30.489Z,56.16
2019-01-02T14:53:58.864Z,58.86
2019-01-02T14:56:27.564Z,57.80
2019-01-02T14:58:56.510Z,58.11
2019-01-02T15:01:25.192Z,59.72
2019-01-02T15:03:53.534Z,60.46
2019-01-02T15:06:21.881Z,60.55
2019-01-02T15:08:50.227Z,61.86
2019-01-02T15:11:18.513Z,59.21
2019-01-02T15:13:46.911Z,58.72
2019-01-02T15:16:15.348Z,59.79
2019-01-02T15:18:43.716Z,61.97
2019-01-02T15:21:12.143Z,63.43
2019-01-02T15:23:40.751Z,63.52
2019-01-02T15:26:09.190Z,64.04
2019-01-02T15:28:37.514Z,64.24
2019-01-02T15:31:05.874Z,64.18
2019-01-02T15:33:34.230Z,64.31
2019-01-02T15:36:02.533Z,64.15
2019-01-02T15:38:30.903Z,65.79
2019-01-02T15:40:59.230Z,66.63
2019-01-02T15:43:27.540Z,66.02
2019-01-02T15:45:55.836Z,66.08
2019-01-02T15:48:24.321Z,65.08
2019-01-02T15:50:52.657Z,65.28
2019-01-02T15:53:21.051Z,65.87
2019-01-02T15:55:49.488Z,65.61
2019-01-02T15:58:17.742Z,66.10
2019-01-02T16:00:46.058Z,66.31
2019-01-02T16:03:15.420Z,67.23
2019-01-02T16:05:44.817Z,68.25
2019-01-02T16:08:14.254Z,68.27
2019-01-02T16:10:42.608Z,68.84
2019-01-02T16:13:11.013Z,69.13
2019-01-02T16:15:39.379Z,69.72
2019-01-02T16:18:07.673Z,70.13
2019-01-02T16:20:36.098Z,70.54
2019-01-02T16:23:04.431Z,70.49
2019-01-02T16:25:32.802Z,70.79
2019-01-02T16:28:01.153Z,71.09
2019-01-02T16:30:29.547Z,71.17
2019-01-02T16:32:57.864Z,71.17
2019-01-02T16:35:26.208Z,71.09
2019-01-02T16:37:54.648Z,70.89
2019-01-02T16:40:22.903Z,71.40
2019-01-02T16:42:51.237Z,71.39
2019-01-02T16:45:19.636Z,72.08
2019-01-02T16:47:47.958Z,71.93
2019-01-02T16:50:16.490Z,72.18
2019-01-02T16:52:44.819Z,71.76
2019-01-02T16:55:13.264Z,71.63
2019-01-02T16:57:41.580Z,72.14
2019-01-02T17:00:13.966Z,72.28
2019-01-02T17:02:42.241Z,71.78
2019-01-02T17:05:10.526Z,71.86
2019-01-02T17:07:38.867Z,71.90
2019-01-02T17:10:10.516Z,71.89
2019-01-02T17:12:38.837Z,72.07
2019-01-02T17:15:08.356Z,72.55
2019-01-02T17:17:36.823Z,72.84
2019-01-02T17:20:07.836Z,72.52
2019-01-02T17:22:36.175Z,72.51
2019-01-02T17:25:07.025Z,72.63
2019-01-02T17:27:35.296Z,72.90
2019-01-02T17:30:04.739Z,73.70
2019-01-02T17:32:33.029Z,73.97
2019-01-02T17:35:01.918Z,73.72
2019-01-02T17:37:34.827Z,73.34
2019-01-02T17:40:16.666Z,73.20
2019-01-02T17:42:53.220Z,73.17
2019-01-02T17:45:21.873Z,73.19
2019-01-02T17:47:50.271Z,73.61
2019-01-02T17:50:18.561Z,73.29
2019-01-02T17:52:46.862Z,73.43
2019-01-02T17:55:15.252Z,73.59
2019-01-02T17:57:43.598Z,73.81
2019-01-02T18:00:11.979Z,74.00
2019-01-02T18:02:40.275Z,74.21
2019-01-02T18:05:08.702Z,74.24
2019-01-02T18:07:37.139Z,73.95
2019-01-02T18:10:08.120Z,73.28
2019-01-02T18:12:36.485Z,72.94
2019-01-02T18:15:07.222Z,72.98
2019-01-02T18:17:35.682Z,73.00
2019-01-02T18:20:13.259Z,73.14
2019-01-02T18:22:50.639Z,73.42
2019-01-02T18:25:31.975Z,73.57
2019-01-02T18:28:15.736Z,73.74
2019-01-02T18:30:59.808Z,74.01
2019-01-02T18:33:42.038Z,74.18
2019-01-02T18:36:27.443Z,74.09
2019-01-02T18:39:16.581Z,74.31
2019-01-02T18:41:55.431Z,74.36
2019-01-02T18:44:33.225Z,74.18
2019-01-02T18:47:02.059Z,74.11
2019-01-02T18:49:30.435Z,73.98
2019-01-02T18:51:58.796Z,73.93
2019-01-02T18:54:27.261Z,74.43
2019-01-02T18:56:55.593Z,74.14
2019-01-02T18:59:23.959Z,73.93
2019-01-02T19:01:52.403Z,74.36
2019-01-02T19:04:20.848Z,74.30
2019-01-02T19:06:49.181Z,74.38
2019-01-02T19:09:17.587Z,74.53
2019-01-02T19:11:45.979Z,73.98
2019-01-02T19:14:14.409Z,74.09
2019-01-02T19:16:42.815Z,73.97
2019-01-02T19:19:11.113Z,74.08
2019-01-02T19:21:39.513Z,73.80
2019-01-02T19:24:07.806Z,73.89
2019-01-02T19:26:36.122Z,73.87
2019-01-02T19:29:04.476Z,73.76
2019-01-02T19:31:32.861Z,73.64
2019-01-02T19:34:01.196Z,73.72
2019-01-02T19:36:29.489Z,73.86
2019-01-02T19:38:57.847Z,73.77
2019-01-02T19:41:26.544Z,73.75
2019-01-02T19:43:54.894Z,73.42
2019-01-02T19:46:23.174Z,73.52
2019-01-02T19:48:51.920Z,73.71
2019-01-02T19:51:20.372Z,73.65
2019-01-02T19:53:48.882Z,73.61
2019-01-02T19:56:17.625Z,73.76
2019-01-02T19:58:46.575Z,74.08
2019-01-02T20:01:15.448Z,74.23
2019-01-02T20:03:44.500Z,74.40
2019-01-02T20:06:13.627Z,74.62
2019-01-02T20:08:42.369Z,74.42
2019-01-02T20:11:11.412Z,74.44
2019-01-02T20:13:40.389Z,74.30
2019-01-02T20:16:09.016Z,74.42
2019-01-02T20:18:37.913Z,74.17
2019-01-02T20:21:06.900Z,74.14
2019-01-02T20:23:35.960Z,73.84
2019-01-02T20:26:05.074Z,73.64
2019-01-02T20:28:34.893Z,73.18
2019-01-02T20:31:04.513Z,73.51
2019-01-02T20:33:33.921Z,73.60
2019-01-02T20:36:03.121Z,73.51
2019-01-02T20:38:32.908Z,73.36
2019-01-02T20:41:04.056Z,73.10
2019-01-02T20:43:33.336Z,73.32
2019-01-02T20:46:05.187Z,73.55
2019-01-02T20:48:34.677Z,73.67
2019-01-02T20:51:03.944Z,73.79
2019-01-02T20:53:44.533Z,73.71
2019-01-02T20:56:25.408Z,74.06
2019-01-02T20:59:03.316Z,74.16
2019-01-02T21:01:43.011Z,74.26
2019-01-02T21:04:22.513Z,74.18
2019-01-02T21:06:52.266Z,74.51
2019-01-02T21:09:20.931Z,74.61
2019-01-02T21:11:49.373Z,74.79
2019-01-02T21:14:17.739Z,74.99
2019-01-02T21:16:46.130Z,75.20
2019-01-02T21:19:14.458Z,75.66
2019-01-02T21:21:43.764Z,75.75
2019-01-02T21:24:12.370Z,75.78
2019-01-02T21:26:40.757Z,76.31
2019-01-02T21:29:09.037Z,76.31
2019-01-02T21:31:37.689Z,76.51
2019-01-02T21:34:06.274Z,76.52
2019-01-02T21:36:39.846Z,76.47
2019-01-02T21:39:11.189Z,76.79
2019-01-02T21:41:41.712Z,76.99
2019-01-02T21:44:10.321Z,77.25
2019-01-02T21:46:39.646Z,77.28
2019-01-02T21:49:07.991Z,77.67
2019-01-02T21:51:38.137Z,77.75
2019-01-02T21:54:06.545Z,77.92
2019-01-02T21:56:35.059Z,78.07
2019-01-02T21:59:04.239Z,78.12
2019-01-02T22:01:32.774Z,78.07
2019-01-02T22:04:01.099Z,77.96
2019-01-02T22:06:29.380Z,78.18
2019-01-02T22:08:57.719Z,78.19
2019-01-02T22:11:26.197Z,78.04
2019-01-02T22:13:54.517Z,78.05
2019-01-02T22:16:22.809Z,78.29
2019-01-02T22:18:59.973Z,78.34
2019-01-02T22:21:28.516Z,78.10
2019-01-02T22:23:56.859Z,78.06
2019-01-02T22:26:25.344Z,78.05
2019-01-02T22:28:54.259Z,78.19
2019-01-02T22:31:23.182Z,78.07
2019-01-02T22:33:52.226Z,78.19
2019-01-02T22:36:21.877Z,78.15
2019-01-02T22:38:52.411Z,78.14
2019-01-02T22:41:22.012Z,78.30
2019-01-02T22:43:51.999Z,78.19
2019-01-02T22:46:22.054Z,78.29
2019-01-02T22:48:50.390Z,78.44
2019-01-02T22:51:18.908Z,78.44
2019-01-02T22:53:49.205Z,78.57
2019-01-02T22:56:17.968Z,78.54
2019-01-02T22:58:46.853Z,78.42
2019-01-02T23:01:22.572Z,78.32
2019-01-02T23:04:01.469Z,78.15
2019-01-02T23:06:50.029Z,77.88
2019-01-02T23:09:32.183Z,77.88
2019-01-02T23:12:20.110Z,77.73
2019-01-02T23:15:05.856Z,77.59
2019-01-02T23:17:38.242Z,77.65
2019-01-02T23:20:17.085Z,77.76
2019-01-02T23:23:04.957Z,77.65
2019-01-02T23:25:46.427Z,78.17
2019-01-02T23:28:32.223Z,78.00
2019-01-02T23:31:02.253Z,78.18
2019-01-02T23:33:32.164Z,78.31
2019-01-02T23:36:18.037Z,78.33
2019-01-02T23:39:02.902Z,78.35
2019-01-02T23:41:32.904Z,78.55
2019-01-02T23:44:02.867Z,78.75
2019-01-02T23:46:50.548Z,78.81
2019-01-02T23:49:36.848Z,78.82
2019-01-02T23:52:22.018Z,78.66
2019-01-02T23:55:07.683Z,79.04
2019-01-02T23:57:37.671Z,78.95
